sensor_id;sensor_type;location;lat;lon;timestamp;temperature;humidity
7648;DHT22;3866;48.020;11.720;2023-06-10T00:00:28;14.60;99.90
7648;DHT22;3866;48.020;11.720;2023-06-10T00:02:57;14.40;99.90
7648;DHT22;3866;48.020;11.720;2023-06-10T00:05:24;14.30;99.90
7648;DHT22;3866;48.020;11.720;2023-06-10T00:07:55;14.30;99.90
7648;DHT22;3866;48.020;11.720;2023-06-10T00:10:22;14.40;99.90
7648;DHT22;3866;48.020;11.720;2023-06-10T00:12:49;14.40;99.90
7648;DHT22;3866;48.020;11.720;2023-06-10T00:15:18;14.40;99.90
7648;DHT22;3866;48.020;11.720;2023-06-10T00:17:45;14.40;99.90
7648;DHT22;3866;48.020;11.720;2023-06-10T00:20:12;14.40;99.90
7648;DHT22;3866;48.020;11.720;2023-06-10T00:22:39;14.30;99.90
7648;DHT22;3866;48.020;11.720;2023-06-10T00:25:07;14.30;99.90
7648;DHT22;3866;48.020;11.720;2023-06-10T00:27:34;14.20;99.90
7648;DHT22;3866;48.020;11.720;2023-06-10T00:30:02;14.10;99.90
7648;DHT22;3866;48.020;11.720;2023-06-10T00:32:34;14.00;99.90
7648;DHT22;3866;48.020;11.720;2023-06-10T00:35:01;14.00;99.90
7648;DHT22;3866;48.020;11.720;2023-06-10T00:37:28;13.90;99.90
7648;DHT22;3866;48.020;11.720;2023-06-10T00:39:55;13.90;99.90
7648;DHT22;3866;48.020;11.720;2023-06-10T00:42:22;14.00;99.90
7648;DHT22;3866;48.020;11.720;2023-06-10T00:44:49;13.90;99.90
7648;DHT22;3866;48.020;11.720;2023-06-10T00:47:17;13.80;99.90
7648;DHT22;3866;48.020;11.720;2023-06-10T00:49:46;13.70;99.90
7648;DHT22;3866;48.020;11.720;2023-06-10T00:52:14;13.60;99.90
7648;DHT22;3866;48.020;11.720;2023-06-10T00:54:41;13.50;99.90
7648;DHT22;3866;48.020;11.720;2023-06-10T00:57:08;13.50;99.90
7648;DHT22;3866;48.020;11.720;2023-06-10T00:59:35;13.40;99.90
7648;DHT22;3866;48.020;11.720;2023-06-10T01:02:03;13.40;99.90
7648;DHT22;3866;48.020;11.720;2023-06-10T01:04:30;13.50;99.90
7648;DHT22;3866;48.020;11.720;2023-06-10T01:07:07;13.50;99.90
7648;DHT22;3866;48.020;11.720;2023-06-10T01:09:40;13.50;99.90
7648;DHT22;3866;48.020;11.720;2023-06-10T01:12:24;13.60;99.90
7648;DHT22;3866;48.020;11.720;2023-06-10T01:14:53;13.50;99.90
7648;DHT22;3866;48.020;11.720;2023-06-10T01:17:20;13.40;99.90
7648;DHT22;3866;48.020;11.720;2023-06-10T01:19:54;13.40;99.90
7648;DHT22;3866;48.020;11.720;2023-06-10T01:22:23;13.40;99.90
7648;DHT22;3866;48.020;11.720;2023-06-10T01:24:52;13.40;99.90
7648;DHT22;3866;48.020;11.720;2023-06-10T01:27:21;13.40;99.90
7648;DHT22;3866;48.020;11.720;2023-06-10T01:29:54;13.40;99.90
7648;DHT22;3866;48.020;11.720;2023-06-10T01:32:28;13.40;99.90
7648;DHT22;3866;48.020;11.720;2023-06-10T01:34:57;13.30;99.90
7648;DHT22;3866;48.020;11.720;2023-06-10T01:37:27;13.20;99.90
7648;DHT22;3866;48.020;11.720;2023-06-10T01:39:56;13.10;99.90
7648;DHT22;3866;48.020;11.720;2023-06-10T01:42:25;13.20;99.90
7648;DHT22;3866;48.020;11.720;2023-06-10T01:44:52;13.10;99.90
7648;DHT22;3866;48.020;11.720;2023-06-10T01:47:19;13.10;99.90
7648;DHT22;3866;48.020;11.720;2023-06-10T01:49:46;13.10;99.90
7648;DHT22;3866;48.020;11.720;2023-06-10T01:52:13;13.00;99.90
7648;DHT22;3866;48.020;11.720;2023-06-10T01:54:41;13.00;99.90
7648;DHT22;3866;48.020;11.720;2023-06-10T01:57:08;12.80;99.90
7648;DHT22;3866;48.020;11.720;2023-06-10T01:59:35;12.70;99.90
7648;DHT22;3866;48.020;11.720;2023-06-10T02:02:04;12.70;99.90
7648;DHT22;3866;48.020;11.720;2023-06-10T02:04:30;12.70;99.90
7648;DHT22;3866;48.020;11.720;2023-06-10T02:06:57;12.60;99.90
7648;DHT22;3866;48.020;11.720;2023-06-10T02:09:24;12.50;99.90
7648;DHT22;3866;48.020;11.720;2023-06-10T02:11:53;12.50;99.90
7648;DHT22;3866;48.020;11.720;2023-06-10T02:14:19;12.50;99.90
7648;DHT22;3866;48.020;11.720;2023-06-10T02:16:46;12.40;99.90
7648;DHT22;3866;48.020;11.720;2023-06-10T02:19:13;12.50;99.90
7648;DHT22;3866;48.020;11.720;2023-06-10T02:21:40;12.40;99.90
7648;DHT22;3866;48.020;11.720;2023-06-10T02:24:07;12.50;99.90
7648;DHT22;3866;48.020;11.720;2023-06-10T02:26:34;12.50;99.90
7648;DHT22;3866;48.020;11.720;2023-06-10T02:29:02;12.50;99.90
7648;DHT22;3866;48.020;11.720;2023-06-10T02:31:29;12.50;99.90
7648;DHT22;3866;48.020;11.720;2023-06-10T02:33:56;12.50;99.90
7648;DHT22;3866;48.020;11.720;2023-06-10T02:36:23;12.50;99.90
7648;DHT22;3866;48.020;11.720;2023-06-10T02:38:53;12.50;99.90
7648;DHT22;3866;48.020;11.720;2023-06-10T02:41:19;12.50;99.90
7648;DHT22;3866;48.020;11.720;2023-06-10T02:43:47;12.40;99.90
7648;DHT22;3866;48.020;11.720;2023-06-10T02:46:15;12.40;99.90
7648;DHT22;3866;48.020;11.720;2023-06-10T02:48:43;12.50;99.90
7648;DHT22;3866;48.020;11.720;2023-06-10T02:51:10;12.50;99.90
7648;DHT22;3866;48.020;11.720;2023-06-10T02:53:37;12.50;99.90
7648;DHT22;3866;48.020;11.720;2023-06-10T02:56:04;12.40;99.90
7648;DHT22;3866;48.020;11.720;2023-06-10T02:58:31;12.30;99.90
7648;DHT22;3866;48.020;11.720;2023-06-10T03:00:58;12.20;99.90
7648;DHT22;3866;48.020;11.720;2023-06-10T03:03:26;12.20;99.90
7648;DHT22;3866;48.020;11.720;2023-06-10T03:05:53;12.10;99.90
7648;DHT22;3866;48.020;11.720;2023-06-10T03:08:20;12.00;99.90
7648;DHT22;3866;48.020;11.720;2023-06-10T03:10:46;12.00;99.90
7648;DHT22;3866;48.020;11.720;2023-06-10T03:13:13;12.00;99.90
7648;DHT22;3866;48.020;11.720;2023-06-10T03:15:41;11.80;99.90
7648;DHT22;3866;48.020;11.720;2023-06-10T03:18:07;11.80;99.90
7648;DHT22;3866;48.020;11.720;2023-06-10T03:20:36;11.80;99.90
7648;DHT22;3866;48.020;11.720;2023-06-10T03:23:03;11.90;99.90
7648;DHT22;3866;48.020;11.720;2023-06-10T03:25:30;11.90;99.90
7648;DHT22;3866;48.020;11.720;2023-06-10T03:27:57;12.00;99.90
7648;DHT22;3866;48.020;11.720;2023-06-10T03:30:24;12.10;99.90
7648;DHT22;3866;48.020;11.720;2023-06-10T03:32:51;12.10;99.90
7648;DHT22;3866;48.020;11.720;2023-06-10T03:35:18;12.10;99.90
7648;DHT22;3866;48.020;11.720;2023-06-10T03:37:46;12.10;99.90
7648;DHT22;3866;48.020;11.720;2023-06-10T03:40:13;12.10;99.90
7648;DHT22;3866;48.020;11.720;2023-06-10T03:42:40;12.10;99.90
7648;DHT22;3866;48.020;11.720;2023-06-10T03:45:07;12.10;99.90
7648;DHT22;3866;48.020;11.720;2023-06-10T03:47:35;12.00;99.90
7648;DHT22;3866;48.020;11.720;2023-06-10T03:50:02;12.00;99.90
7648;DHT22;3866;48.020;11.720;2023-06-10T03:52:30;12.00;99.90
7648;DHT22;3866;48.020;11.720;2023-06-10T03:54:58;11.90;99.90
7648;DHT22;3866;48.020;11.720;2023-06-10T03:57:25;11.80;99.90
7648;DHT22;3866;48.020;11.720;2023-06-10T03:59:52;11.80;99.90
7648;DHT22;3866;48.020;11.720;2023-06-10T04:02:19;11.90;99.90
7648;DHT22;3866;48.020;11.720;2023-06-10T04:04:45;11.80;99.90
7648;DHT22;3866;48.020;11.720;2023-06-10T04:07:12;11.80;99.90
7648;DHT22;3866;48.020;11.720;2023-06-10T04:09:39;11.80;99.90
7648;DHT22;3866;48.020;11.720;2023-06-10T04:12:08;11.80;99.90
7648;DHT22;3866;48.020;11.720;2023-06-10T04:14:36;11.90;99.90
7648;DHT22;3866;48.020;11.720;2023-06-10T04:17:04;12.00;99.90
7648;DHT22;3866;48.020;11.720;2023-06-10T04:19:32;12.10;99.90
7648;DHT22;3866;48.020;11.720;2023-06-10T04:22:00;12.20;99.90
7648;DHT22;3866;48.020;11.720;2023-06-10T04:24:27;12.40;99.90
7648;DHT22;3866;48.020;11.720;2023-06-10T04:26:54;12.50;99.90
7648;DHT22;3866;48.020;11.720;2023-06-10T04:29:22;12.60;99.90
7648;DHT22;3866;48.020;11.720;2023-06-10T04:31:49;12.70;99.90
7648;DHT22;3866;48.020;11.720;2023-06-10T04:34:16;12.80;99.90
7648;DHT22;3866;48.020;11.720;2023-06-10T04:36:43;12.80;99.90
7648;DHT22;3866;48.020;11.720;2023-06-10T04:39:10;12.90;99.90
7648;DHT22;3866;48.020;11.720;2023-06-10T04:41:37;13.00;99.90
7648;DHT22;3866;48.020;11.720;2023-06-10T04:44:04;13.00;99.90
7648;DHT22;3866;48.020;11.720;2023-06-10T04:46:32;13.00;99.90
7648;DHT22;3866;48.020;11.720;2023-06-10T04:48:59;13.10;99.90
7648;DHT22;3866;48.020;11.720;2023-06-10T04:51:25;13.30;99.90
7648;DHT22;3866;48.020;11.720;2023-06-10T04:53:52;13.50;99.90
7648;DHT22;3866;48.020;11.720;2023-06-10T04:56:19;13.50;99.90
7648;DHT22;3866;48.020;11.720;2023-06-10T04:58:47;13.60;99.90
7648;DHT22;3866;48.020;11.720;2023-06-10T05:01:13;13.70;99.90
7648;DHT22;3866;48.020;11.720;2023-06-10T05:03:42;13.80;99.90
7648;DHT22;3866;48.020;11.720;2023-06-10T05:06:09;13.90;99.90
7648;DHT22;3866;48.020;11.720;2023-06-10T05:08:36;14.00;99.90
7648;DHT22;3866;48.020;11.720;2023-06-10T05:11:02;14.10;99.90
7648;DHT22;3866;48.020;11.720;2023-06-10T05:13:29;14.10;99.90
7648;DHT22;3866;48.020;11.720;2023-06-10T05:15:56;14.30;99.90
7648;DHT22;3866;48.020;11.720;2023-06-10T05:18:23;14.40;99.90
7648;DHT22;3866;48.020;11.720;2023-06-10T05:20:51;14.50;99.90
7648;DHT22;3866;48.020;11.720;2023-06-10T05:23:19;14.60;99.90
7648;DHT22;3866;48.020;11.720;2023-06-10T05:25:46;14.80;99.90
7648;DHT22;3866;48.020;11.720;2023-06-10T05:28:13;14.90;99.90
7648;DHT22;3866;48.020;11.720;2023-06-10T05:30:40;14.90;99.90
7648;DHT22;3866;48.020;11.720;2023-06-10T05:33:07;15.10;99.90
7648;DHT22;3866;48.020;11.720;2023-06-10T05:35:34;15.30;99.90
7648;DHT22;3866;48.020;11.720;2023-06-10T05:38:02;15.60;99.90
7648;DHT22;3866;48.020;11.720;2023-06-10T05:40:29;15.60;99.90
7648;DHT22;3866;48.020;11.720;2023-06-10T05:42:56;15.60;99.90
7648;DHT22;3866;48.020;11.720;2023-06-10T05:45:23;16.10;99.90
7648;DHT22;3866;48.020;11.720;2023-06-10T05:47:50;16.20;99.90
7648;DHT22;3866;48.020;11.720;2023-06-10T05:50:17;16.10;99.90
7648;DHT22;3866;48.020;11.720;2023-06-10T05:52:44;16.30;99.90
7648;DHT22;3866;48.020;11.720;2023-06-10T05:55:12;16.50;99.90
7648;DHT22;3866;48.020;11.720;2023-06-10T05:57:41;16.60;99.90
7648;DHT22;3866;48.020;11.720;2023-06-10T06:00:09;16.40;99.90
7648;DHT22;3866;48.020;11.720;2023-06-10T06:02:36;16.70;99.90
7648;DHT22;3866;48.020;11.720;2023-06-10T06:05:03;16.80;99.90
7648;DHT22;3866;48.020;11.720;2023-06-10T06:07:30;16.90;99.90
7648;DHT22;3866;48.020;11.720;2023-06-10T06:09:57;17.00;99.90
7648;DHT22;3866;48.020;11.720;2023-06-10T06:12:25;17.10;99.90
7648;DHT22;3866;48.020;11.720;2023-06-10T06:14:52;17.40;99.90
7648;DHT22;3866;48.020;11.720;2023-06-10T06:17:18;17.40;99.90
7648;DHT22;3866;48.020;11.720;2023-06-10T06:19:45;17.30;99.90
7648;DHT22;3866;48.020;11.720;2023-06-10T06:22:13;17.60;99.90
7648;DHT22;3866;48.020;11.720;2023-06-10T06:24:40;17.90;99.90
7648;DHT22;3866;48.020;11.720;2023-06-10T06:27:07;17.90;99.90
7648;DHT22;3866;48.020;11.720;2023-06-10T06:29:35;17.90;99.90
7648;DHT22;3866;48.020;11.720;2023-06-10T06:32:02;18.10;99.90
7648;DHT22;3866;48.020;11.720;2023-06-10T06:34:29;18.00;99.90
7648;DHT22;3866;48.020;11.720;2023-06-10T06:36:55;18.30;99.90
7648;DHT22;3866;48.020;11.720;2023-06-10T06:39:22;18.30;99.90
7648;DHT22;3866;48.020;11.720;2023-06-10T06:41:49;18.60;99.90
7648;DHT22;3866;48.020;11.720;2023-06-10T06:44:16;18.80;99.90
7648;DHT22;3866;48.020;11.720;2023-06-10T06:46:44;18.70;99.90
7648;DHT22;3866;48.020;11.720;2023-06-10T06:49:11;18.70;99.90
7648;DHT22;3866;48.020;11.720;2023-06-10T06:51:38;19.10;99.90
7648;DHT22;3866;48.020;11.720;2023-06-10T06:54:05;19.40;99.90
7648;DHT22;3866;48.020;11.720;2023-06-10T06:56:32;19.60;99.90
7648;DHT22;3866;48.020;11.720;2023-06-10T06:58:58;20.00;99.90
7648;DHT22;3866;48.020;11.720;2023-06-10T07:01:25;20.20;99.90
7648;DHT22;3866;48.020;11.720;2023-06-10T07:03:53;19.50;99.90
7648;DHT22;3866;48.020;11.720;2023-06-10T07:06:20;19.90;99.90
7648;DHT22;3866;48.020;11.720;2023-06-10T07:08:49;20.80;99.90
7648;DHT22;3866;48.020;11.720;2023-06-10T07:11:16;21.30;99.90
7648;DHT22;3866;48.020;11.720;2023-06-10T07:13:44;21.30;99.90
7648;DHT22;3866;48.020;11.720;2023-06-10T07:16:11;21.10;99.90
7648;DHT22;3866;48.020;11.720;2023-06-10T07:18:37;21.90;99.90
7648;DHT22;3866;48.020;11.720;2023-06-10T07:21:06;21.90;99.90
7648;DHT22;3866;48.020;11.720;2023-06-10T07:23:32;22.30;99.90
7648;DHT22;3866;48.020;11.720;2023-06-10T07:25:59;22.50;99.90
7648;DHT22;3866;48.020;11.720;2023-06-10T07:28:26;22.40;99.90
7648;DHT22;3866;48.020;11.720;2023-06-10T07:30:53;22.30;99.90
7648;DHT22;3866;48.020;11.720;2023-06-10T07:33:20;22.40;99.90
7648;DHT22;3866;48.020;11.720;2023-06-10T07:35:46;22.20;99.90
7648;DHT22;3866;48.020;11.720;2023-06-10T07:38:15;22.10;99.90
7648;DHT22;3866;48.020;11.720;2023-06-10T07:40:42;22.30;99.90
7648;DHT22;3866;48.020;11.720;2023-06-10T07:43:08;22.90;99.90
7648;DHT22;3866;48.020;11.720;2023-06-10T07:45:35;22.80;99.90
7648;DHT22;3866;48.020;11.720;2023-06-10T07:48:02;23.10;99.90
7648;DHT22;3866;48.020;11.720;2023-06-10T07:50:29;23.20;99.90
7648;DHT22;3866;48.020;11.720;2023-06-10T07:52:56;23.10;99.90
7648;DHT22;3866;48.020;11.720;2023-06-10T07:55:24;23.50;99.90
7648;DHT22;3866;48.020;11.720;2023-06-10T07:57:52;24.00;99.90
7648;DHT22;3866;48.020;11.720;2023-06-10T08:00:19;24.60;99.90
7648;DHT22;3866;48.020;11.720;2023-06-10T08:02:46;24.30;99.90
7648;DHT22;3866;48.020;11.720;2023-06-10T08:05:13;23.60;99.90
7648;DHT22;3866;48.020;11.720;2023-06-10T08:07:40;23.50;99.90
7648;DHT22;3866;48.020;11.720;2023-06-10T08:10:07;23.50;99.90
7648;DHT22;3866;48.020;11.720;2023-06-10T08:12:36;23.40;99.90
7648;DHT22;3866;48.020;11.720;2023-06-10T08:15:04;24.10;99.90
7648;DHT22;3866;48.020;11.720;2023-06-10T08:17:31;24.60;99.90
7648;DHT22;3866;48.020;11.720;2023-06-10T08:19:58;23.90;99.90
7648;DHT22;3866;48.020;11.720;2023-06-10T08:22:24;23.80;99.90
7648;DHT22;3866;48.020;11.720;2023-06-10T08:24:51;24.10;99.90
7648;DHT22;3866;48.020;11.720;2023-06-10T08:27:18;24.20;99.90
7648;DHT22;3866;48.020;11.720;2023-06-10T08:29:46;24.70;99.90
7648;DHT22;3866;48.020;11.720;2023-06-10T08:32:13;24.70;99.90
7648;DHT22;3866;48.020;11.720;2023-06-10T08:34:40;25.00;99.90
7648;DHT22;3866;48.020;11.720;2023-06-10T08:37:07;24.80;99.90
7648;DHT22;3866;48.020;11.720;2023-06-10T08:39:34;25.10;99.90
7648;DHT22;3866;48.020;11.720;2023-06-10T08:42:10;24.80;99.90
7648;DHT22;3866;48.020;11.720;2023-06-10T08:44:38;24.90;99.90
7648;DHT22;3866;48.020;11.720;2023-06-10T08:47:13;25.20;99.90
7648;DHT22;3866;48.020;11.720;2023-06-10T08:49:43;24.50;99.90
7648;DHT22;3866;48.020;11.720;2023-06-10T08:52:14;24.60;99.90
7648;DHT22;3866;48.020;11.720;2023-06-10T08:54:43;24.30;99.90
7648;DHT22;3866;48.020;11.720;2023-06-10T08:57:14;23.90;99.90
7648;DHT22;3866;48.020;11.720;2023-06-10T08:59:41;23.50;99.90
7648;DHT22;3866;48.020;11.720;2023-06-10T09:02:10;22.80;99.90
7648;DHT22;3866;48.020;11.720;2023-06-10T09:04:37;22.40;99.90
7648;DHT22;3866;48.020;11.720;2023-06-10T09:07:05;22.40;99.90
7648;DHT22;3866;48.020;11.720;2023-06-10T09:09:35;22.40;99.90
7648;DHT22;3866;48.020;11.720;2023-06-10T09:12:03;22.40;99.90
7648;DHT22;3866;48.020;11.720;2023-06-10T09:14:30;22.90;99.90
7648;DHT22;3866;48.020;11.720;2023-06-10T09:16:57;23.60;99.90
7648;DHT22;3866;48.020;11.720;2023-06-10T09:19:26;24.20;99.90
7648;DHT22;3866;48.020;11.720;2023-06-10T09:21:53;24.20;99.90
7648;DHT22;3866;48.020;11.720;2023-06-10T09:24:21;25.00;99.90
7648;DHT22;3866;48.020;11.720;2023-06-10T09:26:48;24.90;99.90
7648;DHT22;3866;48.020;11.720;2023-06-10T09:29:17;25.10;99.90
7648;DHT22;3866;48.020;11.720;2023-06-10T09:31:44;25.10;99.90
7648;DHT22;3866;48.020;11.720;2023-06-10T09:34:13;24.90;99.90
7648;DHT22;3866;48.020;11.720;2023-06-10T09:36:41;24.40;99.90
7648;DHT22;3866;48.020;11.720;2023-06-10T09:39:14;24.40;99.90
7648;DHT22;3866;48.020;11.720;2023-06-10T09:41:41;24.40;99.90
7648;DHT22;3866;48.020;11.720;2023-06-10T09:44:11;24.20;99.90
7648;DHT22;3866;48.020;11.720;2023-06-10T09:46:39;23.80;99.90
7648;DHT22;3866;48.020;11.720;2023-06-10T09:49:06;23.40;99.90
7648;DHT22;3866;48.020;11.720;2023-06-10T09:51:33;23.10;99.90
7648;DHT22;3866;48.020;11.720;2023-06-10T09:54:02;22.90;99.90
7648;DHT22;3866;48.020;11.720;2023-06-10T09:56:33;22.70;99.90
7648;DHT22;3866;48.020;11.720;2023-06-10T09:59:00;22.80;99.90
7648;DHT22;3866;48.020;11.720;2023-06-10T10:01:27;22.50;99.90
7648;DHT22;3866;48.020;11.720;2023-06-10T10:03:54;22.40;99.90
7648;DHT22;3866;48.020;11.720;2023-06-10T10:06:21;22.40;99.90
7648;DHT22;3866;48.020;11.720;2023-06-10T10:08:49;22.40;99.90
7648;DHT22;3866;48.020;11.720;2023-06-10T10:11:19;22.30;99.90
7648;DHT22;3866;48.020;11.720;2023-06-10T10:13:48;22.30;99.90
7648;DHT22;3866;48.020;11.720;2023-06-10T10:16:17;22.10;99.90
7648;DHT22;3866;48.020;11.720;2023-06-10T10:18:49;22.10;99.90
7648;DHT22;3866;48.020;11.720;2023-06-10T10:21:22;22.10;99.90
7648;DHT22;3866;48.020;11.720;2023-06-10T10:23:53;22.10;99.90
7648;DHT22;3866;48.020;11.720;2023-06-10T10:26:26;22.10;99.90
7648;DHT22;3866;48.020;11.720;2023-06-10T10:29:02;22.10;99.90
7648;DHT22;3866;48.020;11.720;2023-06-10T10:31:32;22.00;99.90
7648;DHT22;3866;48.020;11.720;2023-06-10T10:34:04;22.00;99.90
7648;DHT22;3866;48.020;11.720;2023-06-10T10:36:33;22.00;99.90
7648;DHT22;3866;48.020;11.720;2023-06-10T10:39:01;21.90;99.90
7648;DHT22;3866;48.020;11.720;2023-06-10T10:41:30;22.00;99.90
7648;DHT22;3866;48.020;11.720;2023-06-10T10:43:58;22.10;99.90
7648;DHT22;3866;48.020;11.720;2023-06-10T10:46:26;22.20;99.90
7648;DHT22;3866;48.020;11.720;2023-06-10T10:48:53;22.10;99.90
7648;DHT22;3866;48.020;11.720;2023-06-10T10:51:22;22.10;99.90
7648;DHT22;3866;48.020;11.720;2023-06-10T10:54:11;22.40;99.90
7648;DHT22;3866;48.020;11.720;2023-06-10T10:57:10;22.30;99.90
7648;DHT22;3866;48.020;11.720;2023-06-10T10:59:44;22.40;99.90
7648;DHT22;3866;48.020;11.720;2023-06-10T11:02:15;22.40;99.90
7648;DHT22;3866;48.020;11.720;2023-06-10T11:04:45;22.30;99.90
7648;DHT22;3866;48.020;11.720;2023-06-10T11:07:12;22.30;99.90
7648;DHT22;3866;48.020;11.720;2023-06-10T11:09:57;22.50;99.90
7648;DHT22;3866;48.020;11.720;2023-06-10T11:12:29;22.40;99.90
7648;DHT22;3866;48.020;11.720;2023-06-10T11:15:06;22.50;99.90
7648;DHT22;3866;48.020;11.720;2023-06-10T11:17:33;22.40;99.90
7648;DHT22;3866;48.020;11.720;2023-06-10T11:20:00;22.50;99.90
7648;DHT22;3866;48.020;11.720;2023-06-10T11:22:26;22.70;99.90
7648;DHT22;3866;48.020;11.720;2023-06-10T11:24:53;23.00;99.90
7648;DHT22;3866;48.020;11.720;2023-06-10T11:27:21;23.00;99.90
7648;DHT22;3866;48.020;11.720;2023-06-10T11:30:17;22.80;99.90
7648;DHT22;3866;48.020;11.720;2023-06-10T11:32:45;22.80;99.90
7648;DHT22;3866;48.020;11.720;2023-06-10T11:35:18;22.70;99.90
7648;DHT22;3866;48.020;11.720;2023-06-10T11:37:46;22.80;99.90
7648;DHT22;3866;48.020;11.720;2023-06-10T11:40:13;22.70;99.90
7648;DHT22;3866;48.020;11.720;2023-06-10T11:42:42;22.70;99.90
7648;DHT22;3866;48.020;11.720;2023-06-10T11:45:14;22.70;99.90
7648;DHT22;3866;48.020;11.720;2023-06-10T11:47:55;22.70;99.90
7648;DHT22;3866;48.020;11.720;2023-06-10T11:50:28;23.00;99.90
7648;DHT22;3866;48.020;11.720;2023-06-10T11:52:55;22.90;99.90
7648;DHT22;3866;48.020;11.720;2023-06-10T11:55:24;22.70;99.90
7648;DHT22;3866;48.020;11.720;2023-06-10T11:57:51;22.90;99.90
7648;DHT22;3866;48.020;11.720;2023-06-10T12:00:24;23.00;99.90
7648;DHT22;3866;48.020;11.720;2023-06-10T12:02:57;23.40;99.90
7648;DHT22;3866;48.020;11.720;2023-06-10T12:05:24;24.20;99.90
7648;DHT22;3866;48.020;11.720;2023-06-10T12:08:09;24.10;99.90
7648;DHT22;3866;48.020;11.720;2023-06-10T12:10:40;23.90;99.90
7648;DHT22;3866;48.020;11.720;2023-06-10T12:13:08;24.70;99.90
7648;DHT22;3866;48.020;11.720;2023-06-10T12:15:37;25.60;99.90
7648;DHT22;3866;48.020;11.720;2023-06-10T12:18:04;26.90;99.90
7648;DHT22;3866;48.020;11.720;2023-06-10T12:20:32;27.50;99.90
7648;DHT22;3866;48.020;11.720;2023-06-10T12:23:00;27.20;99.90
7648;DHT22;3866;48.020;11.720;2023-06-10T12:25:28;26.10;99.90
7648;DHT22;3866;48.020;11.720;2023-06-10T12:27:57;25.70;99.90
7648;DHT22;3866;48.020;11.720;2023-06-10T12:30:25;26.50;99.90
7648;DHT22;3866;48.020;11.720;2023-06-10T12:32:54;27.40;99.90
7648;DHT22;3866;48.020;11.720;2023-06-10T12:35:23;27.20;99.90
7648;DHT22;3866;48.020;11.720;2023-06-10T12:37:58;26.80;99.90
7648;DHT22;3866;48.020;11.720;2023-06-10T12:40:27;27.00;99.90
7648;DHT22;3866;48.020;11.720;2023-06-10T12:42:54;27.30;99.90
7648;DHT22;3866;48.020;11.720;2023-06-10T12:45:26;27.10;99.90
7648;DHT22;3866;48.020;11.720;2023-06-10T12:48:06;27.20;99.90
7648;DHT22;3866;48.020;11.720;2023-06-10T12:50:35;26.50;99.90
7648;DHT22;3866;48.020;11.720;2023-06-10T12:53:03;25.50;99.90
7648;DHT22;3866;48.020;11.720;2023-06-10T12:55:30;25.20;99.90
7648;DHT22;3866;48.020;11.720;2023-06-10T12:57:56;25.60;99.90
7648;DHT22;3866;48.020;11.720;2023-06-10T13:00:23;26.10;99.90
7648;DHT22;3866;48.020;11.720;2023-06-10T13:02:52;26.90;99.90
7648;DHT22;3866;48.020;11.720;2023-06-10T13:05:20;27.10;99.90
7648;DHT22;3866;48.020;11.720;2023-06-10T13:07:47;27.00;99.90
7648;DHT22;3866;48.020;11.720;2023-06-10T13:10:14;27.00;99.90
7648;DHT22;3866;48.020;11.720;2023-06-10T13:12:42;28.10;99.90
7648;DHT22;3866;48.020;11.720;2023-06-10T13:15:10;27.40;99.90
7648;DHT22;3866;48.020;11.720;2023-06-10T13:17:37;26.80;99.90
7648;DHT22;3866;48.020;11.720;2023-06-10T13:20:05;27.50;99.90
7648;DHT22;3866;48.020;11.720;2023-06-10T13:22:34;26.60;99.90
7648;DHT22;3866;48.020;11.720;2023-06-10T13:25:02;26.20;99.90
7648;DHT22;3866;48.020;11.720;2023-06-10T13:27:29;26.20;99.90
7648;DHT22;3866;48.020;11.720;2023-06-10T13:29:56;25.80;99.90
7648;DHT22;3866;48.020;11.720;2023-06-10T13:32:23;25.70;99.90
7648;DHT22;3866;48.020;11.720;2023-06-10T13:34:50;25.10;99.90
7648;DHT22;3866;48.020;11.720;2023-06-10T13:37:18;25.30;99.90
7648;DHT22;3866;48.020;11.720;2023-06-10T13:39:47;24.90;99.90
7648;DHT22;3866;48.020;11.720;2023-06-10T13:42:16;24.70;99.90
7648;DHT22;3866;48.020;11.720;2023-06-10T13:44:43;24.70;99.90
7648;DHT22;3866;48.020;11.720;2023-06-10T13:47:10;25.00;99.90
7648;DHT22;3866;48.020;11.720;2023-06-10T13:49:36;25.10;99.90
7648;DHT22;3866;48.020;11.720;2023-06-10T13:52:05;25.00;99.90
7648;DHT22;3866;48.020;11.720;2023-06-10T13:54:32;25.20;99.90
7648;DHT22;3866;48.020;11.720;2023-06-10T13:57:00;25.50;99.90
7648;DHT22;3866;48.020;11.720;2023-06-10T13:59:27;25.30;99.90
7648;DHT22;3866;48.020;11.720;2023-06-10T14:01:54;25.10;99.90
7648;DHT22;3866;48.020;11.720;2023-06-10T14:04:21;25.00;99.90
7648;DHT22;3866;48.020;11.720;2023-06-10T14:06:48;25.00;99.90
7648;DHT22;3866;48.020;11.720;2023-06-10T14:09:15;25.20;99.90
7648;DHT22;3866;48.020;11.720;2023-06-10T14:11:42;25.60;99.90
7648;DHT22;3866;48.020;11.720;2023-06-10T14:14:10;25.20;99.90
7648;DHT22;3866;48.020;11.720;2023-06-10T14:16:37;25.10;99.90
7648;DHT22;3866;48.020;11.720;2023-06-10T14:19:04;25.30;99.90
7648;DHT22;3866;48.020;11.720;2023-06-10T14:21:31;25.30;99.90
7648;DHT22;3866;48.020;11.720;2023-06-10T14:23:57;25.20;99.90
7648;DHT22;3866;48.020;11.720;2023-06-10T14:26:24;25.20;99.90
7648;DHT22;3866;48.020;11.720;2023-06-10T14:28:51;25.10;99.90
7648;DHT22;3866;48.020;11.720;2023-06-10T14:31:20;25.10;99.90
7648;DHT22;3866;48.020;11.720;2023-06-10T14:33:46;25.00;99.90
7648;DHT22;3866;48.020;11.720;2023-06-10T14:36:13;25.20;99.90
7648;DHT22;3866;48.020;11.720;2023-06-10T14:38:40;25.30;99.90
7648;DHT22;3866;48.020;11.720;2023-06-10T14:41:07;25.20;99.90
7648;DHT22;3866;48.020;11.720;2023-06-10T14:43:34;25.10;99.90
7648;DHT22;3866;48.020;11.720;2023-06-10T14:46:01;25.10;99.90
7648;DHT22;3866;48.020;11.720;2023-06-10T14:48:30;25.10;99.90
7648;DHT22;3866;48.020;11.720;2023-06-10T14:50:57;25.20;99.90
7648;DHT22;3866;48.020;11.720;2023-06-10T14:53:24;25.10;99.90
7648;DHT22;3866;48.020;11.720;2023-06-10T14:55:51;25.00;99.90
7648;DHT22;3866;48.020;11.720;2023-06-10T14:58:18;24.60;99.90
7648;DHT22;3866;48.020;11.720;2023-06-10T15:00:45;24.40;99.90
7648;DHT22;3866;48.020;11.720;2023-06-10T15:03:11;24.60;99.90
7648;DHT22;3866;48.020;11.720;2023-06-10T15:05:40;24.60;99.90
7648;DHT22;3866;48.020;11.720;2023-06-10T15:08:06;24.70;99.90
7648;DHT22;3866;48.020;11.720;2023-06-10T15:10:33;24.70;99.90
7648;DHT22;3866;48.020;11.720;2023-06-10T15:13:00;24.70;99.90
7648;DHT22;3866;48.020;11.720;2023-06-10T15:15:27;24.70;99.90
7648;DHT22;3866;48.020;11.720;2023-06-10T15:17:54;24.60;99.90
7648;DHT22;3866;48.020;11.720;2023-06-10T15:20:21;24.40;99.90
7648;DHT22;3866;48.020;11.720;2023-06-10T15:22:49;24.30;99.90
7648;DHT22;3866;48.020;11.720;2023-06-10T15:25:16;24.00;99.90
7648;DHT22;3866;48.020;11.720;2023-06-10T15:27:43;23.70;99.90
7648;DHT22;3866;48.020;11.720;2023-06-10T15:30:10;23.50;99.90
7648;DHT22;3866;48.020;11.720;2023-06-10T15:32:37;23.20;99.90
7648;DHT22;3866;48.020;11.720;2023-06-10T15:35:05;23.10;99.90
7648;DHT22;3866;48.020;11.720;2023-06-10T15:37:32;23.10;99.90
7648;DHT22;3866;48.020;11.720;2023-06-10T15:40:00;23.00;99.90
7648;DHT22;3866;48.020;11.720;2023-06-10T15:42:27;22.90;99.90
7648;DHT22;3866;48.020;11.720;2023-06-10T15:44:54;23.00;99.90
7648;DHT22;3866;48.020;11.720;2023-06-10T15:47:21;23.10;99.90
7648;DHT22;3866;48.020;11.720;2023-06-10T15:49:47;23.30;99.90